Weather reports worldwide

Advertisment
St.Catherine`s Point, United Kingdom (3866): temperature & dewpoint: 14.06.2019 05:00:00 - 20.06.2019 05:00:00 (BST)St.Catherine`s Point, United Kingdom (3866): wind speed & gusts: 14.06.2019 05:00:00 - 20.06.2019 05:00:00 (BST)St.Catherine`s Point, United Kingdom (3866): wind direction: 14.06.2019 05:00:00 - 20.06.2019 05:00:00 (BST)St.Catherine`s Point, United Kingdom (3866): reduced air pressure: 14.06.2019 05:00:00 - 20.06.2019 05:00:00 (BST)St.Catherine`s Point, United Kingdom (3866): precipitation: 14.06.2019 05:00:00 - 20.06.2019 05:00:00 (BST)
Date & Time tt [°C] td [°C] ff [km/h] ff [kn] fx [km/h] fx [kn] dd ppp [hPa] rr [mm]
20.06.2019 05:00:00 - - - - - - - - -
20.06.2019 04:00:00 13,0 10,3 21 11 - - WNW 1011,6 0,0
20.06.2019 03:00:00 13,0 9,2 16 9 - - WNW 1011,4 0,0
20.06.2019 02:00:00 13,5 9,5 15 8 - - WNW 1011,1 0,0
20.06.2019 01:00:00 14,1 9,4 21 11 - - NW 1011,2 0,0
20.06.2019 00:00:00 14,5 13,6 21 11 - - W 1010,7 0,0
19.06.2019 23:00:00 14,6 13,2 18 10 - - WNW 1010,3 0,0
19.06.2019 22:00:00 14,6 14,1 16 9 - - W 1010,0 0,0
19.06.2019 21:00:00 14,3 13,6 21 11 - - W 1009,5 0,0
19.06.2019 20:00:00 14,4 13,5 21 11 - - W 1009,5 0,0
19.06.2019 19:00:00 15,0 13,6 22 12 - - W 1009,2 0,0
19.06.2019 18:00:00 15,5 14,0 22 12 - - W 1008,9 0,0
19.06.2019 17:00:00 15,8 14,0 15 8 - - WSW 1008,7 0,0
19.06.2019 16:00:00 16,1 14,5 5 3 - - WNW 1008,7 0,0
19.06.2019 15:00:00 16,5 14,7 9 5 - - W 1008,8 0,0
19.06.2019 14:00:00 16,4 14,8 8 4 - - WNW 1008,6 0,0
19.06.2019 13:00:00 16,3 15,0 9 5 - - WNW 1008,3 0,0
19.06.2019 12:00:00 16,3 14,8 15 8 - - WNW 1008,0 0,0
19.06.2019 11:00:00 16,9 14,6 15 8 - - WNW 1007,7 0,0
19.06.2019 10:00:00 15,7 14,3 11 6 - - WNW 1007,5 0,0
19.06.2019 09:00:00 16,0 14,8 2 1 - - WNW 1007,2 0,0
19.06.2019 08:00:00 15,3 14,7 8 4 - - NNW 1007,3 0,0
19.06.2019 07:00:00 14,8 14,2 13 7 - - N 1006,8 0,0
19.06.2019 06:00:00 14,6 14,1 24 13 - - NNE 1006,3 0,0
19.06.2019 05:00:00 14,9 14,0 21 11 - - NNE 1006,5 0,0
19.06.2019 04:00:00 15,0 14,2 26 14 - - N 1006,7 0,0
19.06.2019 03:00:00 14,8 14,2 28 15 - - NNE 1006,4 0,0
19.06.2019 02:00:00 14,9 14,1 24 13 - - NNE 1007,3 0,0
19.06.2019 01:00:00 15,5 14,5 26 14 - - NNE 1008,1 0,0
19.06.2019 00:00:00 15,7 14,5 24 13 - - NNE 1008,3 0,0
18.06.2019 23:00:00 15,8 14,3 26 14 - - NNE 1008,5 0,0
18.06.2019 22:00:00 16,2 14,7 24 13 - - NNE 1009,2 0,0
18.06.2019 21:00:00 16,0 14,6 24 13 - - NNE 1010,0 0,0
18.06.2019 20:00:00 16,1 14,7 26 14 - - NNE 1009,9 0,0
18.06.2019 19:00:00 15,8 14,4 24 13 - - NNE 1010,5 0,0
18.06.2019 18:00:00 15,9 14,6 21 11 - - NNE 1010,6 0,2
18.06.2019 17:00:00 16,5 14,7 21 11 - - NE 1010,8 0,0
18.06.2019 16:00:00 14,9 13,5 15 8 - - NNE 1011,6 0,8
18.06.2019 15:00:00 14,0 12,0 8 4 - - NW 1013,5 3,6
18.06.2019 14:00:00 15,2 12,1 21 11 - - NE 1012,2 0,0
18.06.2019 13:00:00 16,2 12,6 22 12 - - E 1013,0 0,0
18.06.2019 12:00:00 14,2 12,0 21 11 - - ENE 1013,3 0,2
18.06.2019 11:00:00 13,5 12,4 26 14 - - E 1013,7 1,4
18.06.2019 10:00:00 14,1 12,2 5 3 - - NE 1015,3 1,4
18.06.2019 09:00:00 14,5 12,2 2 1 - - SSE 1015,4 0,0
18.06.2019 08:00:00 14,5 13,2 9 5 - - ESE 1015,1 0,0
18.06.2019 07:00:00 14,1 13,1 4 2 - - E 1015,2 0,0
18.06.2019 06:00:00 12,7 11,6 4 2 - - ENE 1015,3 0,0
18.06.2019 05:00:00 12,4 11,2 5 3 - - ENE 1015,3 0,0
18.06.2019 04:00:00 12,8 11,4 2 1 - - N 1015,6 0,0
18.06.2019 03:00:00 12,6 10,8 5 3 - - NW 1015,9 0,0
18.06.2019 02:00:00 12,3 10,7 8 4 - - NW 1016,3 0,0
18.06.2019 01:00:00 12,1 10,3 8 4 - - NNW 1016,7 0,0
18.06.2019 00:00:00 12,3 11,2 5 3 - - WNW 1017,3 0,0
17.06.2019 23:00:00 11,8 10,2 4 2 - - N 1017,2 0,0
17.06.2019 22:00:00 13,6 11,8 4 2 - - WSW 1017,5 0,0
17.06.2019 21:00:00 14,2 12,0 8 4 - - SW 1017,2 0,0
17.06.2019 20:00:00 15,0 12,0 9 5 - - WSW 1017,1 0,0
17.06.2019 19:00:00 15,2 12,2 11 6 - - WSW 1017,3 0,0
17.06.2019 18:00:00 15,5 11,8 11 6 - - WSW 1017,7 0,0
17.06.2019 17:00:00 15,4 12,1 15 8 - - WSW 1017,9 0,0
17.06.2019 16:00:00 16,1 12,3 15 8 - - WSW 1018,2 0,0
17.06.2019 15:00:00 15,4 12,4 15 8 - - WSW 1018,5 0,0
17.06.2019 14:00:00 15,6 12,9 15 8 - - SW 1018,5 0,0
17.06.2019 13:00:00 15,2 12,7 16 9 - - SW 1018,7 0,0
17.06.2019 12:00:00 14,9 12,6 18 10 - - SW 1018,7 0,0
17.06.2019 11:00:00 14,7 12,8 18 10 - - SW 1018,9 0,0
17.06.2019 10:00:00 14,2 12,4 18 10 - - SW 1018,9 0,0
17.06.2019 09:00:00 14,3 12,4 18 10 - - SW 1018,9 0,0
17.06.2019 08:00:00 14,3 12,5 21 11 - - WSW 1018,8 0,0
17.06.2019 07:00:00 14,2 12,2 21 11 - - WSW 1018,5 0,0
17.06.2019 06:00:00 14,1 11,8 18 10 - - SW 1018,4 0,0
17.06.2019 05:00:00 14,3 11,8 16 9 - - SW 1018,2 0,0
17.06.2019 04:00:00 14,4 12,3 16 9 - - SW 1018,2 0,0
17.06.2019 03:00:00 14,0 12,5 11 6 - - SSW 1018,5 0,0
17.06.2019 02:00:00 14,4 12,4 11 6 - - SSW 1018,8 0,0
17.06.2019 01:00:00 14,0 12,4 9 5 - - SW 1018,9 0,0
17.06.2019 00:00:00 14,3 12,3 16 9 - - WSW 1019,0 0,0
16.06.2019 23:00:00 14,3 12,6 21 11 - - WSW 1019,1 0,0
16.06.2019 22:00:00 14,3 12,8 21 11 - - WSW 1019,2 0,0
16.06.2019 21:00:00 14,5 12,8 21 11 - - WSW 1018,9 0,0
16.06.2019 20:00:00 14,7 12,8 21 11 - - WSW 1018,8 0,0
16.06.2019 19:00:00 14,9 12,7 18 10 - - WSW 1018,8 0,0
16.06.2019 18:00:00 15,0 12,8 18 10 - - WSW 1018,8 0,0
16.06.2019 17:00:00 15,3 12,9 22 12 - - WSW 1018,8 0,0
16.06.2019 16:00:00 15,4 12,7 29 16 - - WSW 1018,8 0,0
16.06.2019 15:00:00 15,6 13,1 28 15 - - WSW 1018,6 0,0
16.06.2019 14:00:00 15,0 13,2 28 15 - - WSW 1018,5 0,0
16.06.2019 13:00:00 14,8 13,2 29 16 46 25 WSW 1018,1 0,0
16.06.2019 12:00:00 14,4 13,2 37 20 46 25 WSW 1017,7 0,0
16.06.2019 11:00:00 13,9 13,3 29 16 - - WSW 1017,4 0,0
16.06.2019 10:00:00 13,6 13,1 29 16 46 25 WSW 1016,9 1,0
16.06.2019 09:00:00 13,8 13,1 28 15 - - SW 1016,7 1,0
16.06.2019 08:00:00 14,1 12,8 24 13 - - SW 1016,2 0,0
16.06.2019 07:00:00 13,9 12,6 22 12 - - SW 1016,0 0,0
16.06.2019 06:00:00 13,8 12,5 21 11 - - SW 1015,7 0,0
16.06.2019 05:00:00 13,6 12,2 26 14 - - WSW 1015,5 0,0
16.06.2019 04:00:00 13,6 12,0 26 14 - - WSW 1015,4 0,0
16.06.2019 03:00:00 13,6 12,2 21 11 - - SW 1015,3 0,0
16.06.2019 02:00:00 13,4 11,9 21 11 - - WSW 1015,5 0,0
16.06.2019 01:00:00 13,2 11,2 21 11 - - WSW 1015,6 0,0
16.06.2019 00:00:00 12,9 11,1 21 11 - - WSW 1015,2 0,0
15.06.2019 23:00:00 13,0 11,0 18 10 - - SW 1014,9 0,0
15.06.2019 22:00:00 13,3 11,4 21 11 - - WSW 1014,5 0,0
15.06.2019 21:00:00 13,3 11,1 15 8 - - WSW 1013,9 0,0
15.06.2019 20:00:00 13,8 11,4 18 10 - - WSW 1014,0 0,0
15.06.2019 19:00:00 13,4 11,4 18 10 - - WSW 1013,8 0,0
15.06.2019 18:00:00 13,9 12,8 21 11 - - SW 1013,4 0,2
15.06.2019 17:00:00 14,3 12,5 18 10 - - SW 1013,6 0,0
15.06.2019 16:00:00 15,0 12,3 22 12 - - SW 1013,6 0,0
15.06.2019 15:00:00 15,2 12,5 16 9 - - SSW 1013,5 0,0
15.06.2019 14:00:00 15,4 12,4 16 9 - - SSW 1013,3 0,0
15.06.2019 13:00:00 14,5 11,8 18 10 - - SSW 1013,4 0,0
15.06.2019 12:00:00 13,3 11,5 21 11 - - SSW 1013,2 0,0
15.06.2019 11:00:00 14,7 11,4 16 9 - - SSW 1013,0 0,0
15.06.2019 10:00:00 14,6 11,6 18 10 - - SW 1012,8 0,0
15.06.2019 09:00:00 14,4 11,7 18 10 - - SW 1012,6 0,0
15.06.2019 08:00:00 14,0 11,5 16 9 - - SW 1012,3 0,0
15.06.2019 07:00:00 14,0 11,9 18 10 - - SW 1011,9 0,0
15.06.2019 06:00:00 13,9 11,1 18 10 - - S 1011,7 0,0
15.06.2019 05:00:00 13,8 11,2 11 6 - - S 1011,7 0,0
15.06.2019 04:00:00 13,8 11,3 15 8 - - SSW 1011,8 0,0
15.06.2019 03:00:00 13,7 11,3 11 6 - - SSW 1012,0 0,0
15.06.2019 02:00:00 14,1 10,5 13 7 - - SW 1012,3 0,0
15.06.2019 01:00:00 13,9 10,5 11 6 - - SW 1012,3 0,0
15.06.2019 00:00:00 13,6 10,7 8 4 - - SSW 1012,3 0,0
14.06.2019 23:00:00 13,6 10,8 11 6 - - SW 1012,3 0,0
14.06.2019 22:00:00 13,5 10,9 11 6 - - WSW 1012,2 0,0
14.06.2019 21:00:00 13,5 10,6 16 9 - - WSW 1011,7 0,0
14.06.2019 20:00:00 13,9 10,9 21 11 - - W 1011,8 0,0
14.06.2019 19:00:00 14,2 11,2 21 11 - - WSW 1011,8 0,0
14.06.2019 18:00:00 14,7 11,2 22 12 - - WSW 1011,5 0,0
14.06.2019 17:00:00 14,4 11,1 21 11 - - WSW 1011,7 0,0
14.06.2019 16:00:00 14,6 10,6 21 11 - - SW 1011,9 0,0
14.06.2019 15:00:00 14,8 11,5 22 12 - - SW 1011,9 0,0
14.06.2019 14:00:00 14,4 11,8 22 12 - - SW 1011,6 0,0
14.06.2019 13:00:00 13,6 11,6 22 12 - - SW 1011,6 0,0
14.06.2019 12:00:00 13,9 11,8 26 14 - - SW 1011,4 0,0
14.06.2019 11:00:00 13,8 11,8 28 15 - - SW 1011,1 0,0
14.06.2019 10:00:00 13,6 11,7 28 15 - - SW 1010,5 0,0
14.06.2019 09:00:00 13,6 11,8 29 16 46 25 WSW 1010,2 0,0
14.06.2019 08:00:00 13,3 11,8 28 15 - - SW 1009,8 0,0
14.06.2019 07:00:00 13,2 11,9 29 16 - - SW 1009,5 0,2
14.06.2019 06:00:00 12,9 12,0 26 14 - - SW 1009,2 0,6
14.06.2019 05:00:00 13,4 11,7 28 15 - - SW 1009,1 0,0

tt = temperature
td = dewpoint
ff = wind speed
fx = gusts
dd = wind direction
ppp = reduced air pressure
rr = precipitation

Next stations